Ana Sayfa
METAR-TAF:

METAR-TAF

Havaalanları :

Gastonia Municipal Airport

Gastonia, Kuzey Carolina, Amerika Birleşik Devletleri

Enlem: 35-11-48N, Boylam: 081-09-21W, yükseklik: 243 m

Güncel hava durumu gözlemi

Rapor saat 21:54 UTC de 54 dakika önce yapıldı.
Rüzgar güneydoğudan 3 kt
Sıcaklık 21°C
Nem 46%
Basınç 1017 hPa
Görüş mesafesi: 16.1 km
Açık gökyüzü

METAR: KAKH 232154Z AUTO 13003KT 10SM CLR 21/09 A3003 RMK AO2 SLP166 T02060094

Saat: 18:48 (22:48 UTC)


TAF: eksik

4.000'den fazla havaalanı için hava durumu gözlemleri ve tahminleri (METAR ve TAF raporları).

Kullanılabilir istasyonlar harita üzerinde sarı ve kırmızı noktalarla gösterilir.

İstasyonun adını görmek için fareyi noktanın üzerinde gezdirin.

Sonrasında hava gözlem ve tahminlerini görmek için tıklayın.

Haritayı değiştirmek için: yaklaştırmak için siyah artı işaretli yeşil düğmeye ve uzaklaştırmak için de eksi işaretli düğmeye hızla tıklayın; bitişik haritalar için yeşil okları kullanın.


METAR-TAF: